Time;durP1;ratioP1;P1;durP2;ratioP2;P2;SDS_P1;SDS_P2;PMS_P1;PMS_P2;Temp;Humidity;BMP_temperature;BMP_pressure;BME280_temperature;BME280_humidity;BME280_pressure;Samples;Min_cycle;Max_cycle;Signal;HPM_P1;HPM_P2
2022/07/31 00:00:15;;;;;;;16.95;12.27;;;;;;;;;;5031137;28;20025;-64
2022/07/31 00:02:43;;;;;;;17.23;12.10;;;;;;;;;;5030148;28;20025;-62
2022/07/31 00:05:09;;;;;;;18.17;12.52;;;;;;;;;;5031341;28;20029;-60
2022/07/31 00:07:35;;;;;;;17.20;12.75;;;;;;;;;;5030542;28;20021;-64
2022/07/31 00:10:01;;;;;;;18.83;12.55;;;;;;;;;;5032155;28;20026;-64
2022/07/31 00:12:27;;;;;;;17.98;12.77;;;;;;;;;;5032573;28;20440;-64
2022/07/31 00:14:53;;;;;;;16.08;12.35;;;;;;;;;;5031344;28;20071;-64
2022/07/31 00:17:19;;;;;;;16.25;12.38;;;;;;;;;;5031076;28;20025;-64
2022/07/31 00:19:45;;;;;;;16.48;12.52;;;;;;;;;;5032013;28;20485;-63
2022/07/31 00:22:12;;;;;;;16.67;12.15;;;;;;;;;;5032121;28;20021;-62
2022/07/31 00:24:38;;;;;;;17.20;12.23;;;;;;;;;;5032215;28;20041;-62
2022/07/31 00:27:04;;;;;;;17.48;12.20;;;;;;;;;;5031157;28;20121;-62
2022/07/31 00:29:30;;;;;;;16.83;12.30;;;;;;;;;;5032982;28;20101;-64
2022/07/31 00:31:56;;;;;;;16.63;12.35;;;;;;;;;;5033323;28;20109;-67
2022/07/31 00:34:23;;;;;;;17.52;12.60;;;;;;;;;;5032160;28;20052;-63
2022/07/31 00:36:49;;;;;;;17.45;11.82;;;;;;;;;;5033406;28;20142;-64
2022/07/31 00:39:15;;;;;;;18.73;12.70;;;;;;;;;;5033470;28;20030;-63
2022/07/31 00:41:42;;;;;;;21.85;12.77;;;;;;;;;;5032201;28;20045;-64
2022/07/31 00:44:08;;;;;;;17.00;12.50;;;;;;;;;;5031927;28;20031;-63
2022/07/31 00:46:34;;;;;;;18.27;12.65;;;;;;;;;;5032203;28;20052;-64
2022/07/31 00:49:00;;;;;;;16.83;12.25;;;;;;;;;;5033303;28;20394;-63
2022/07/31 00:51:26;;;;;;;16.13;12.30;;;;;;;;;;5033351;28;20026;-63
2022/07/31 00:53:52;;;;;;;16.98;12.43;;;;;;;;;;5033596;28;20022;-63
2022/07/31 00:56:18;;;;;;;16.88;12.38;;;;;;;;;;5033177;28;20028;-64
2022/07/31 00:58:44;;;;;;;16.88;12.50;;;;;;;;;;5032132;28;20510;-63
2022/07/31 01:01:10;;;;;;;17.13;12.50;;;;;;;;;;5033251;28;20037;-63
2022/07/31 01:03:36;;;;;;;17.88;12.07;;;;;;;;;;5033404;28;20021;-63
2022/07/31 01:06:02;;;;;;;17.10;12.30;;;;;;;;;;5032998;28;20041;-63
2022/07/31 01:08:28;;;;;;;19.50;12.07;;;;;;;;;;5031506;28;20033;-63
2022/07/31 01:10:57;;;;;;;15.90;11.80;;;;;;;;;;5031572;28;20485;-64
2022/07/31 01:13:35;;;;;;;16.95;12.02;;;;;;;;;;5031488;28;20083;-63
2022/07/31 01:16:02;;;;;;;16.87;12.60;;;;;;;;;;5031928;28;20021;-63
2022/07/31 01:18:31;;;;;;;16.48;12.10;;;;;;;;;;5032520;28;20323;-63
2022/07/31 01:21:00;;;;;;;16.85;12.75;;;;;;;;;;5032364;28;20550;-63
2022/07/31 01:23:26;;;;;;;19.33;12.40;;;;;;;;;;5032670;28;20070;-63
2022/07/31 01:26:03;;;;;;;16.73;11.77;;;;;;;;;;5032894;28;20498;-63
2022/07/31 01:28:38;;;;;;;20.52;12.85;;;;;;;;;;5032691;28;20021;-62
2022/07/31 01:31:09;;;;;;;18.30;12.73;;;;;;;;;;5032511;28;20029;-63
2022/07/31 01:33:37;;;;;;;18.65;11.90;;;;;;;;;;5032857;28;20101;-62
2022/07/31 01:36:08;;;;;;;17.27;12.52;;;;;;;;;;5032862;28;20032;-62
2022/07/31 01:38:36;;;;;;;16.38;11.90;;;;;;;;;;5032064;28;20068;-63
2022/07/31 01:41:06;;;;;;;16.60;12.30;;;;;;;;;;5032775;28;20025;-63
2022/07/31 01:43:36;;;;;;;17.00;12.10;;;;;;;;;;5032591;28;20036;-63
2022/07/31 01:46:03;;;;;;;18.35;12.85;;;;;;;;;;5032877;28;20072;-63
2022/07/31 01:48:31;;;;;;;19.77;12.18;;;;;;;;;;5032647;28;20025;-63
2022/07/31 01:50:58;;;;;;;17.17;12.63;;;;;;;;;;5032740;28;20401;-63
2022/07/31 01:53:25;;;;;;;16.98;12.52;;;;;;;;;;5033306;28;20029;-61
2022/07/31 01:55:52;;;;;;;16.30;12.32;;;;;;;;;;5035116;28;20100;-62
2022/07/31 01:58:19;;;;;;;17.92;12.40;;;;;;;;;;5046561;28;20064;-63
2022/07/31 02:00:46;;;;;;;17.38;12.23;;;;;;;;;;5058047;23;20075;-63
2022/07/31 02:03:12;;;;;;;17.70;12.35;;;;;;;;;;5031636;28;20037;-62
2022/07/31 02:05:40;;;;;;;16.98;12.02;;;;;;;;;;5030388;28;20029;-62
2022/07/31 02:08:07;;;;;;;16.98;12.10;;;;;;;;;;5031522;28;20025;-62
2022/07/31 02:10:34;;;;;;;18.65;12.55;;;;;;;;;;5031526;28;20397;-62
2022/07/31 02:13:01;;;;;;;17.80;12.13;;;;;;;;;;5031549;28;20029;-62
2022/07/31 02:15:27;;;;;;;18.13;12.30;;;;;;;;;;5031805;28;20160;-63
2022/07/31 02:17:54;;;;;;;16.92;11.65;;;;;;;;;;5030842;28;20033;-62
2022/07/31 02:20:20;;;;;;;17.60;11.85;;;;;;;;;;5031028;28;20018;-61
2022/07/31 02:22:46;;;;;;;16.70;12.20;;;;;;;;;;5030153;28;20025;-61
2022/07/31 02:25:13;;;;;;;16.35;11.82;;;;;;;;;;5031671;28;20144;-62
2022/07/31 02:27:41;;;;;;;18.60;12.02;;;;;;;;;;5030297;28;20057;-62
2022/07/31 02:30:07;;;;;;;18.38;12.70;;;;;;;;;;5031482;28;20018;-63
2022/07/31 02:32:34;;;;;;;17.83;12.50;;;;;;;;;;5031430;28;20120;-62
2022/07/31 02:35:01;;;;;;;17.00;12.18;;;;;;;;;;5030057;28;20026;-62
2022/07/31 02:37:28;;;;;;;21.00;12.00;;;;;;;;;;5031180;28;20045;-63
2022/07/31 02:39:54;;;;;;;20.70;12.57;;;;;;;;;;5031350;28;20072;-62
2022/07/31 02:42:21;;;;;;;16.65;11.90;;;;;;;;;;5031339;28;20461;-62
2022/07/31 02:44:48;;;;;;;17.15;11.82;;;;;;;;;;5030206;28;20135;-63
2022/07/31 02:47:14;;;;;;;16.45;11.93;;;;;;;;;;5031078;28;20482;-62
2022/07/31 02:49:40;;;;;;;16.98;11.73;;;;;;;;;;5031300;28;20401;-62
2022/07/31 02:52:08;;;;;;;17.25;12.20;;;;;;;;;;5034428;28;20164;-62
2022/07/31 02:54:37;;;;;;;17.10;11.90;;;;;;;;;;5034795;28;20025;-61
2022/07/31 02:57:03;;;;;;;;;;;;;;;;;;5035409;28;20105;-62
2022/07/31 02:59:29;;;;;;;20.98;12.32;;;;;;;;;;5034751;28;19929;-62
2022/07/31 03:01:55;;;;;;;17.45;11.98;;;;;;;;;;5034186;28;20029;-62
2022/07/31 03:04:21;;;;;;;19.50;12.70;;;;;;;;;;5034657;28;20021;-63
2022/07/31 03:06:49;;;;;;;19.20;12.27;;;;;;;;;;5034468;28;20021;-62
2022/07/31 03:09:16;;;;;;;19.58;12.60;;;;;;;;;;5034397;28;20029;-62
2022/07/31 03:11:42;;;;;;;16.52;11.80;;;;;;;;;;5034691;28;20025;-62
2022/07/31 03:14:09;;;;;;;17.17;12.57;;;;;;;;;;5034649;28;20109;-62
2022/07/31 03:16:36;;;;;;;18.65;12.15;;;;;;;;;;5033156;28;20046;-62
2022/07/31 03:19:03;;;;;;;17.85;12.43;;;;;;;;;;5032748;28;20017;-62
2022/07/31 03:21:30;;;;;;;18.65;11.93;;;;;;;;;;5034323;28;20030;-61
2022/07/31 03:23:57;;;;;;;16.23;11.93;;;;;;;;;;5034572;28;20397;-62
2022/07/31 03:26:23;;;;;;;17.05;11.70;;;;;;;;;;5032871;28;20036;-61
2022/07/31 03:28:49;;;;;;;17.10;11.80;;;;;;;;;;5033894;28;20025;-63
2022/07/31 03:31:14;;;;;;;17.42;11.75;;;;;;;;;;5033985;28;20025;-63
2022/07/31 03:33:41;;;;;;;17.55;12.27;;;;;;;;;;5034029;28;20462;-63
2022/07/31 03:36:11;;;;;;;17.52;12.00;;;;;;;;;;5032840;28;20014;-62
2022/07/31 03:38:37;;;;;;;17.08;11.88;;;;;;;;;;5033694;28;20540;-63
2022/07/31 03:41:03;;;;;;;16.70;11.98;;;;;;;;;;5033760;28;20037;-63
2022/07/31 03:43:30;;;;;;;17.00;12.30;;;;;;;;;;5032108;28;20086;-62
2022/07/31 03:45:58;;;;;;;21.15;12.27;;;;;;;;;;5032384;28;20022;-61
2022/07/31 03:48:24;;;;;;;17.60;11.95;;;;;;;;;;5033236;28;20033;-62
2022/07/31 03:50:50;;;;;;;18.42;12.48;;;;;;;;;;5033406;28;20022;-62
2022/07/31 03:53:17;;;;;;;16.88;11.90;;;;;;;;;;5033996;28;20021;-62
2022/07/31 03:55:43;;;;;;;16.77;12.32;;;;;;;;;;5033860;28;20053;-62
2022/07/31 03:58:09;;;;;;;17.17;11.60;;;;;;;;;;5033559;28;20433;-62
2022/07/31 04:00:35;;;;;;;17.67;11.93;;;;;;;;;;5033642;28;20370;-62
2022/07/31 04:03:09;;;;;;;18.17;12.80;;;;;;;;;;5033249;28;20029;-62
2022/07/31 04:05:35;;;;;;;16.35;12.43;;;;;;;;;;5033873;28;20366;-62
2022/07/31 04:08:01;;;;;;;16.58;12.20;;;;;;;;;;5033229;28;20108;-62
2022/07/31 04:10:27;;;;;;;19.50;13.27;;;;;;;;;;5033242;28;20017;-62
2022/07/31 04:12:53;;;;;;;17.88;12.98;;;;;;;;;;5033441;28;20096;-62
2022/07/31 04:15:19;;;;;;;16.50;12.65;;;;;;;;;;5033272;28;20017;-62
2022/07/31 04:17:45;;;;;;;18.60;13.10;;;;;;;;;;5032812;28;20115;-63
2022/07/31 04:20:11;;;;;;;18.30;12.77;;;;;;;;;;5033399;28;20018;-62
2022/07/31 04:22:37;;;;;;;17.45;13.18;;;;;;;;;;5033060;28;20021;-63
2022/07/31 04:25:04;;;;;;;17.52;13.20;;;;;;;;;;5033074;28;20029;-62
2022/07/31 04:27:30;;;;;;;19.08;13.50;;;;;;;;;;5032810;28;20041;-62
2022/07/31 04:29:56;;;;;;;20.02;13.02;;;;;;;;;;5032965;28;20485;-62
2022/07/31 04:32:23;;;;;;;18.50;12.80;;;;;;;;;;5030918;28;20104;-61
2022/07/31 04:34:49;;;;;;;17.30;13.18;;;;;;;;;;5021133;28;20534;-63
2022/07/31 04:37:15;;;;;;;17.20;13.30;;;;;;;;;;5017647;28;20143;-62
2022/07/31 04:39:41;;;;;;;16.83;13.63;;;;;;;;;;5033065;28;20025;-63
2022/07/31 04:42:08;;;;;;;17.70;13.55;;;;;;;;;;5021538;28;20033;-62
2022/07/31 04:44:34;;;;;;;17.77;13.48;;;;;;;;;;5013123;28;20371;-62
2022/07/31 04:47:01;;;;;;;18.58;13.45;;;;;;;;;;5011699;28;20461;-62
2022/07/31 04:49:27;;;;;;;19.55;13.68;;;;;;;;;;5012601;28;20551;-63
2022/07/31 04:51:53;;;;;;;18.88;13.18;;;;;;;;;;5032730;28;20052;-62
2022/07/31 04:54:19;;;;;;;17.42;12.65;;;;;;;;;;5031653;28;20021;-63
2022/07/31 04:56:47;;;;;;;17.15;13.52;;;;;;;;;;5032712;28;20018;-62
2022/07/31 04:59:14;;;;;;;17.42;13.30;;;;;;;;;;5032418;28;20017;-62
2022/07/31 05:01:40;;;;;;;19.10;13.70;;;;;;;;;;5032468;28;20485;-62
2022/07/31 05:04:07;;;;;;;19.65;14.02;;;;;;;;;;5032922;28;20025;-62
2022/07/31 05:06:38;;;;;;;18.73;13.30;;;;;;;;;;5031120;28;20539;-62
2022/07/31 05:09:05;;;;;;;16.98;13.55;;;;;;;;;;5012579;28;20034;-63
2022/07/31 05:11:32;;;;;;;19.23;13.10;;;;;;;;;;5012704;28;20517;-62
2022/07/31 05:13:59;;;;;;;18.13;13.73;;;;;;;;;;5012040;28;20026;-62
2022/07/31 05:16:25;;;;;;;18.55;13.50;;;;;;;;;;5012422;28;20022;-62
2022/07/31 05:18:51;;;;;;;18.23;13.38;;;;;;;;;;5012749;28;20398;-62
2022/07/31 05:21:18;;;;;;;19.23;13.40;;;;;;;;;;5011330;28;20490;-62
2022/07/31 05:23:45;;;;;;;20.27;13.20;;;;;;;;;;5012793;28;20037;-62
2022/07/31 05:26:11;;;;;;;17.50;13.30;;;;;;;;;;5012743;28;20036;-62
2022/07/31 05:28:37;;;;;;;18.23;13.40;;;;;;;;;;5012172;28;20034;-64
2022/07/31 05:31:04;;;;;;;18.52;13.30;;;;;;;;;;5011955;28;20118;-63
2022/07/31 05:33:30;;;;;;;17.92;14.00;;;;;;;;;;5010977;28;20077;-64
2022/07/31 05:35:56;;;;;;;20.48;13.98;;;;;;;;;;5012337;28;20021;-64
2022/07/31 05:38:22;;;;;;;18.75;13.98;;;;;;;;;;5011853;28;20061;-64
2022/07/31 05:40:49;;;;;;;17.13;14.35;;;;;;;;;;5012093;28;20053;-64
2022/07/31 05:43:15;;;;;;;17.27;13.90;;;;;;;;;;5011984;28;20036;-65
2022/07/31 05:45:41;;;;;;;18.35;13.90;;;;;;;;;;5010671;28;20021;-64
2022/07/31 05:48:07;;;;;;;17.42;14.10;;;;;;;;;;5011897;28;20029;-64
2022/07/31 05:50:33;;;;;;;18.02;13.57;;;;;;;;;;5012045;28;20082;-64
2022/07/31 05:52:59;;;;;;;18.67;13.82;;;;;;;;;;5010916;28;20049;-63
2022/07/31 05:55:25;;;;;;;17.23;13.70;;;;;;;;;;5010804;28;20071;-64
2022/07/31 05:57:52;;;;;;;20.10;13.45;;;;;;;;;;5011751;28;20045;-64
2022/07/31 06:00:19;;;;;;;18.17;13.93;;;;;;;;;;5011988;28;20041;-64
2022/07/31 06:02:45;;;;;;;16.67;13.07;;;;;;;;;;5010663;28;20548;-65
2022/07/31 06:05:11;;;;;;;17.60;14.05;;;;;;;;;;5010716;28;20033;-64
2022/07/31 06:07:37;;;;;;;19.20;13.43;;;;;;;;;;5014551;28;21722;-64
2022/07/31 06:10:04;;;;;;;17.27;13.73;;;;;;;;;;5031745;28;20541;-63
2022/07/31 06:12:30;;;;;;;17.10;14.43;;;;;;;;;;5030237;28;20033;-65
2022/07/31 06:14:56;;;;;;;20.23;14.63;;;;;;;;;;5030510;28;20018;-64
2022/07/31 06:17:23;;;;;;;17.88;14.35;;;;;;;;;;5030330;28;20436;-64
2022/07/31 06:19:49;;;;;;;19.42;14.13;;;;;;;;;;5031749;28;20018;-64
2022/07/31 06:22:16;;;;;;;18.88;14.07;;;;;;;;;;5031494;28;20083;-64
2022/07/31 06:24:42;;;;;;;17.08;14.15;;;;;;;;;;5028380;28;20033;-63
2022/07/31 06:27:08;;;;;;;20.08;15.40;;;;;;;;;;5034938;28;20040;-62
2022/07/31 06:29:34;;;;;;;17.67;13.95;;;;;;;;;;5035313;28;20052;-64
2022/07/31 06:32:00;;;;;;;18.63;14.45;;;;;;;;;;5035211;28;20040;-64
2022/07/31 06:34:26;;;;;;;17.15;14.00;;;;;;;;;;5035374;28;20030;-64
2022/07/31 06:36:52;;;;;;;18.48;14.60;;;;;;;;;;5035464;28;20427;-65
2022/07/31 06:39:18;;;;;;;17.25;14.63;;;;;;;;;;5033691;28;20064;-63
2022/07/31 06:41:45;;;;;;;17.30;14.68;;;;;;;;;;5035079;28;20057;-63
2022/07/31 06:44:11;;;;;;;19.80;15.17;;;;;;;;;;5035303;28;20116;-63
2022/07/31 06:46:38;;;;;;;17.17;14.25;;;;;;;;;;5034811;28;20052;-63
2022/07/31 06:49:04;;;;;;;18.63;14.30;;;;;;;;;;5034169;28;20036;-63
2022/07/31 06:51:30;;;;;;;17.80;14.52;;;;;;;;;;5033492;28;20663;-63
2022/07/31 06:53:56;;;;;;;17.52;14.43;;;;;;;;;;5034961;28;20025;-63
2022/07/31 06:56:22;;;;;;;17.40;14.02;;;;;;;;;;5034841;28;20436;-63
2022/07/31 06:58:48;;;;;;;18.75;14.30;;;;;;;;;;5034221;28;20021;-63
2022/07/31 07:01:15;;;;;;;18.77;14.52;;;;;;;;;;5034935;28;20036;-64
2022/07/31 07:03:40;;;;;;;17.10;14.27;;;;;;;;;;5034763;28;20033;-63
2022/07/31 07:06:06;;;;;;;17.60;14.63;;;;;;;;;;5034773;28;20086;-64
2022/07/31 07:08:33;;;;;;;19.80;15.40;;;;;;;;;;5033911;28;20091;-64
2022/07/31 07:10:59;;;;;;;21.95;14.70;;;;;;;;;;5034356;28;20029;-64
2022/07/31 07:13:25;;;;;;;18.40;15.20;;;;;;;;;;5034459;28;20504;-64
2022/07/31 07:15:51;;;;;;;19.52;15.18;;;;;;;;;;5035308;28;20028;-63
2022/07/31 07:18:17;;;;;;;19.98;15.35;;;;;;;;;;5033839;28;20029;-64
2022/07/31 07:20:43;;;;;;;18.95;15.00;;;;;;;;;;5034571;28;20057;-64
2022/07/31 07:23:09;;;;;;;19.15;16.15;;;;;;;;;;5034461;28;20432;-64
2022/07/31 07:25:35;;;;;;;21.70;16.38;;;;;;;;;;5034508;28;20116;-63
2022/07/31 07:28:01;;;;;;;21.23;15.82;;;;;;;;;;5033508;28;20037;-63
2022/07/31 07:30:27;;;;;;;18.58;15.25;;;;;;;;;;5034392;28;20025;-62
2022/07/31 07:32:54;;;;;;;19.48;15.20;;;;;;;;;;5033140;28;20115;-62
2022/07/31 07:35:20;;;;;;;18.70;15.40;;;;;;;;;;5034243;28;20021;-62
2022/07/31 07:37:47;;;;;;;19.70;15.18;;;;;;;;;;5032645;28;20032;-61
2022/07/31 07:40:13;;;;;;;21.27;16.23;;;;;;;;;;5033902;28;20027;-62
2022/07/31 07:42:40;;;;;;;19.35;15.80;;;;;;;;;;5034117;28;20091;-63
2022/07/31 07:45:06;;;;;;;19.05;15.23;;;;;;;;;;5034188;28;20029;-64
2022/07/31 07:47:32;;;;;;;21.00;15.85;;;;;;;;;;5033343;28;20551;-63
2022/07/31 07:49:58;;;;;;;18.73;15.48;;;;;;;;;;5032614;28;20128;-62
2022/07/31 07:52:24;;;;;;;27.00;15.73;;;;;;;;;;5033868;28;20026;-63
2022/07/31 07:54:50;;;;;;;19.33;15.98;;;;;;;;;;5033897;28;20021;-63
2022/07/31 07:57:17;;;;;;;21.38;16.52;;;;;;;;;;5032916;28;20529;-60
2022/07/31 07:59:43;;;;;;;21.05;15.40;;;;;;;;;;5033774;28;20178;-63
2022/07/31 08:02:11;;;;;;;19.15;15.95;;;;;;;;;;5034715;28;20056;-64
2022/07/31 08:04:37;;;;;;;19.92;16.25;;;;;;;;;;5033690;28;20021;-63
2022/07/31 08:07:03;;;;;;;20.10;16.35;;;;;;;;;;5032165;28;20041;-62
2022/07/31 08:09:29;;;;;;;19.80;15.50;;;;;;;;;;5033029;28;20036;-62
2022/07/31 08:11:55;;;;;;;19.40;15.30;;;;;;;;;;5032144;28;20039;-61
2022/07/31 08:14:21;;;;;;;19.70;15.63;;;;;;;;;;5033279;28;20385;-61
2022/07/31 08:16:47;;;;;;;20.10;16.08;;;;;;;;;;5033342;28;20068;-62
2022/07/31 08:19:13;;;;;;;20.02;16.67;;;;;;;;;;5032482;28;20022;-59
2022/07/31 08:21:39;;;;;;;20.05;17.85;;;;;;;;;;5033190;28;20434;-57
2022/07/31 08:24:06;;;;;;;22.10;17.38;;;;;;;;;;5033163;28;20068;-56
2022/07/31 08:29:17;;;;;;;20.95;17.23;;;;;;;;;;5032520;28;20052;-60
2022/07/31 08:31:43;;;;;;;22.55;17.80;;;;;;;;;;5033103;28;20121;-58
2022/07/31 08:34:09;;;;;;;22.42;16.60;;;;;;;;;;5033000;28;20049;-56
2022/07/31 08:36:36;;;;;;;21.02;17.25;;;;;;;;;;5031609;28;20074;-59
2022/07/31 08:39:02;;;;;;;25.15;17.38;;;;;;;;;;5032396;28;20025;-56
2022/07/31 08:41:29;;;;;;;21.35;16.63;;;;;;;;;;5032849;28;20339;-55
2022/07/31 08:43:55;;;;;;;20.70;17.42;;;;;;;;;;5032754;28;20052;-54
2022/07/31 08:46:23;;;;;;;20.33;17.60;;;;;;;;;;5032664;28;20563;-55
2022/07/31 08:48:52;;;;;;;23.60;17.35;;;;;;;;;;5029807;28;20033;-53
2022/07/31 08:51:18;;;;;;;22.48;17.33;;;;;;;;;;5032733;28;20112;-61
2022/07/31 08:53:44;;;;;;;23.55;18.10;;;;;;;;;;5032575;28;20025;-61
2022/07/31 08:56:10;;;;;;;24.33;18.92;;;;;;;;;;5032692;28;20465;-61
2022/07/31 08:58:36;;;;;;;23.10;20.50;;;;;;;;;;5027233;28;20076;-61
2022/07/31 09:01:03;;;;;;;22.70;19.00;;;;;;;;;;5012484;28;20490;-61
2022/07/31 09:03:29;;;;;;;26.20;19.98;;;;;;;;;;5010942;28;20030;-60
2022/07/31 09:05:55;;;;;;;25.55;20.88;;;;;;;;;;5012704;28;20037;-61
2022/07/31 09:08:22;;;;;;;22.25;18.90;;;;;;;;;;5012279;28;20112;-57
2022/07/31 09:10:48;;;;;;;23.48;19.52;;;;;;;;;;5012461;28;20033;-61
2022/07/31 09:13:16;;;;;;;24.60;19.30;;;;;;;;;;5011110;28;20022;-60
2022/07/31 09:15:43;;;;;;;24.65;19.42;;;;;;;;;;5012586;28;20018;-61
2022/07/31 09:18:16;;;;;;;22.50;19.88;;;;;;;;;;5010445;28;20086;-61
2022/07/31 09:20:52;;;;;;;25.95;20.30;;;;;;;;;;5011096;28;20117;-61
2022/07/31 09:23:18;;;;;;;24.10;19.33;;;;;;;;;;5011221;28;20446;-67
2022/07/31 09:26:11;;;;;;;22.35;19.50;;;;;;;;;;5012310;28;20088;-61
2022/07/31 09:28:38;;;;;;;26.05;19.63;;;;;;;;;;5010446;28;20045;-59
2022/07/31 09:31:05;;;;;;;22.17;19.80;;;;;;;;;;5012403;28;20034;-59
2022/07/31 09:33:31;;;;;;;24.23;19.60;;;;;;;;;;5012137;28;20026;-62
2022/07/31 09:35:57;;;;;;;23.85;19.45;;;;;;;;;;5024530;28;20026;-61
2022/07/31 09:38:31;;;;;;;22.73;19.55;;;;;;;;;;5029738;28;20053;-61
2022/07/31 09:41:08;;;;;;;24.25;20.15;;;;;;;;;;5031551;28;20478;-59
2022/07/31 09:43:34;;;;;;;24.67;20.08;;;;;;;;;;5031721;28;20029;-60
2022/07/31 09:46:00;;;;;;;22.83;19.05;;;;;;;;;;5031677;28;20025;-60
2022/07/31 09:48:26;;;;;;;25.13;19.45;;;;;;;;;;5031126;28;20021;-61
2022/07/31 09:50:53;;;;;;;22.67;19.15;;;;;;;;;;5031792;28;20032;-61
2022/07/31 09:53:19;;;;;;;22.90;18.95;;;;;;;;;;5028412;28;20025;-61
2022/07/31 09:55:52;;;;;;;23.63;18.67;;;;;;;;;;5031821;28;20108;-61
2022/07/31 09:58:18;;;;;;;23.95;19.83;;;;;;;;;;5031294;28;20022;-61
2022/07/31 10:00:45;;;;;;;23.13;19.77;;;;;;;;;;5034707;28;20091;-61
2022/07/31 10:03:12;;;;;;;21.27;18.75;;;;;;;;;;5034415;28;20022;-61
2022/07/31 10:05:41;;;;;;;23.00;18.23;;;;;;;;;;5035964;28;20017;-60
2022/07/31 10:08:07;;;;;;;22.17;18.88;;;;;;;;;;5035012;28;20386;-63
2022/07/31 10:10:33;;;;;;;23.40;18.95;;;;;;;;;;5035799;28;20029;-61
2022/07/31 10:13:01;;;;;;;21.83;18.25;;;;;;;;;;5035582;28;20044;-68
2022/07/31 10:15:28;;;;;;;22.80;19.35;;;;;;;;;;5034637;28;20117;-68
2022/07/31 10:17:54;;;;;;;25.23;19.50;;;;;;;;;;5034998;28;20033;-67
2022/07/31 10:20:23;;;;;;;21.15;18.40;;;;;;;;;;5034367;28;20091;-67
2022/07/31 10:22:56;;;;;;;22.10;18.55;;;;;;;;;;5035741;28;20045;-67
2022/07/31 10:25:27;;;;;;;22.00;18.08;;;;;;;;;;5034091;28;20030;-67
2022/07/31 10:27:55;;;;;;;21.60;17.75;;;;;;;;;;5034633;28;20595;-68
2022/07/31 10:30:22;;;;;;;;;;;;;;;;;;5034648;28;20087;-67
2022/07/31 10:32:49;;;;;;;23.83;19.23;;;;;;;;;;5035478;28;19963;-68
2022/07/31 10:35:16;;;;;;;20.95;18.33;;;;;;;;;;5035974;28;20024;-67
2022/07/31 10:37:45;;;;;;;21.98;17.73;;;;;;;;;;5025081;28;20084;-69
2022/07/31 10:40:20;;;;;;;22.05;18.33;;;;;;;;;;5014682;28;20052;-67
2022/07/31 10:43:05;;;;;;;24.17;17.88;;;;;;;;;;5014045;28;20042;-66
2022/07/31 10:45:31;;;;;;;21.58;17.80;;;;;;;;;;5014516;28;20076;-67
2022/07/31 10:47:58;;;;;;;23.30;17.77;;;;;;;;;;5013502;28;20080;-67
2022/07/31 10:50:25;;;;;;;20.98;17.50;;;;;;;;;;5015193;28;20105;-67
2022/07/31 10:52:52;;;;;;;21.38;17.20;;;;;;;;;;5012236;28;20030;-67
2022/07/31 10:55:24;;;;;;;21.00;16.48;;;;;;;;;;5015077;28;20025;-66
2022/07/31 10:57:50;;;;;;;19.52;16.67;;;;;;;;;;5013463;28;20108;-67
2022/07/31 11:00:21;;;;;;;20.45;17.80;;;;;;;;;;5013989;28;20394;-67
2022/07/31 11:02:47;;;;;;;18.98;16.65;;;;;;;;;;5015265;28;20042;-68
2022/07/31 11:05:26;;;;;;;19.48;16.17;;;;;;;;;;5014196;28;20079;-67
2022/07/31 11:08:03;;;;;;;19.17;16.48;;;;;;;;;;5015599;28;20030;-66
2022/07/31 11:10:29;;;;;;;18.98;15.35;;;;;;;;;;5013281;28;20041;-66
2022/07/31 11:13:03;;;;;;;19.70;15.85;;;;;;;;;;5014313;28;20097;-67
2022/07/31 11:15:30;;;;;;;19.67;16.38;;;;;;;;;;5014856;28;20018;-67
2022/07/31 11:17:56;;;;;;;19.02;15.73;;;;;;;;;;5014172;28;20021;-67
2022/07/31 11:20:24;;;;;;;18.33;15.30;;;;;;;;;;5014789;28;20033;-66
2022/07/31 11:22:53;;;;;;;21.60;15.77;;;;;;;;;;5014933;28;20026;-66
2022/07/31 11:25:19;;;;;;;19.38;15.63;;;;;;;;;;5014617;28;20026;-67
2022/07/31 11:27:45;;;;;;;18.83;15.82;;;;;;;;;;5013892;28;20025;-66
2022/07/31 11:30:11;;;;;;;20.15;16.15;;;;;;;;;;5014790;28;20030;-67
2022/07/31 11:32:37;;;;;;;19.13;15.48;;;;;;;;;;5013166;28;20029;-67
2022/07/31 11:35:03;;;;;;;18.98;15.68;;;;;;;;;;5018026;28;20481;-67
2022/07/31 11:37:31;;;;;;;18.00;15.38;;;;;;;;;;5033620;28;20389;-66
2022/07/31 11:39:57;;;;;;;17.55;15.10;;;;;;;;;;5034224;28;20029;-66
2022/07/31 11:42:27;;;;;;;18.40;15.43;;;;;;;;;;5034301;28;20028;-66
2022/07/31 11:44:53;;;;;;;18.50;15.68;;;;;;;;;;5033043;28;20021;-67
2022/07/31 11:47:19;;;;;;;18.73;16.23;;;;;;;;;;5032174;28;20032;-66
2022/07/31 11:49:45;;;;;;;18.52;16.02;;;;;;;;;;5035133;28;20029;-66
2022/07/31 11:52:12;;;;;;;18.88;16.70;;;;;;;;;;5032686;28;20034;-67
2022/07/31 11:54:38;;;;;;;18.90;16.48;;;;;;;;;;5034657;28;20543;-67
2022/07/31 11:57:04;;;;;;;19.40;16.85;;;;;;;;;;5034313;28;20045;-67
2022/07/31 11:59:37;;;;;;;20.20;16.80;;;;;;;;;;5034236;28;20018;-66
2022/07/31 12:02:03;;;;;;;20.45;16.20;;;;;;;;;;5034574;28;20118;-66
2022/07/31 12:04:31;;;;;;;19.13;17.05;;;;;;;;;;5033745;28;20954;-65
2022/07/31 12:06:57;;;;;;;21.63;16.60;;;;;;;;;;5034371;28;20116;-67
2022/07/31 12:09:24;;;;;;;19.02;16.67;;;;;;;;;;5031799;28;20056;-67
2022/07/31 12:11:50;;;;;;;21.10;17.48;;;;;;;;;;4681594;28;10000433;-67
2022/07/31 12:14:26;;;;;;;20.17;17.17;;;;;;;;;;5028336;28;20018;-66
2022/07/31 12:16:52;;;;;;;21.38;18.52;;;;;;;;;;5021921;28;20610;-66
2022/07/31 12:19:25;;;;;;;21.65;19.40;;;;;;;;;;5027920;28;20091;-67
2022/07/31 12:21:51;;;;;;;22.65;20.30;;;;;;;;;;5019145;28;20034;-67
2022/07/31 12:24:19;;;;;;;23.77;21.38;;;;;;;;;;5020936;28;20033;-66
2022/07/31 12:26:51;;;;;;;23.63;21.23;;;;;;;;;;5029050;28;20025;-67
2022/07/31 12:29:17;;;;;;;23.13;20.80;;;;;;;;;;5029534;28;20594;-66
2022/07/31 12:31:51;;;;;;;23.40;21.00;;;;;;;;;;5030354;28;20033;-67
2022/07/31 12:34:27;;;;;;;23.20;20.90;;;;;;;;;;5030226;28;20037;-67
2022/07/31 12:36:57;;;;;;;24.30;21.83;;;;;;;;;;5008986;28;20109;-66
2022/07/31 12:39:23;;;;;;;23.98;21.38;;;;;;;;;;5009812;28;20485;-67
2022/07/31 12:41:49;;;;;;;23.02;20.63;;;;;;;;;;5010347;28;20072;-67
2022/07/31 12:44:15;;;;;;;21.35;18.90;;;;;;;;;;5010171;28;20029;-66
2022/07/31 12:46:41;;;;;;;26.23;19.17;;;;;;;;;;5020862;28;20029;-65
2022/07/31 12:49:07;;;;;;;22.85;18.15;;;;;;;;;;5017642;28;20056;-66
2022/07/31 12:51:33;;;;;;;20.02;17.92;;;;;;;;;;5009693;28;20061;-66
2022/07/31 12:54:01;;;;;;;20.92;18.40;;;;;;;;;;5014959;28;20067;-65
2022/07/31 12:56:27;;;;;;;19.70;17.48;;;;;;;;;;5024561;28;20097;-67
2022/07/31 12:58:54;;;;;;;20.23;17.75;;;;;;;;;;5023431;28;20125;-66
2022/07/31 13:01:20;;;;;;;18.50;16.30;;;;;;;;;;5024576;28;20037;-68
2022/07/31 13:03:49;;;;;;;19.50;16.67;;;;;;;;;;5025803;28;20026;-67
2022/07/31 13:06:15;;;;;;;20.58;16.63;;;;;;;;;;5024051;28;20108;-66
2022/07/31 13:08:42;;;;;;;18.38;16.15;;;;;;;;;;5016167;28;20030;-64
2022/07/31 13:11:08;;;;;;;19.50;16.65;;;;;;;;;;5009518;28;20037;-64
2022/07/31 13:13:34;;;;;;;19.75;16.38;;;;;;;;;;5029310;28;20055;-67
2022/07/31 13:16:00;;;;;;;19.77;16.40;;;;;;;;;;5028828;28;20072;-66
2022/07/31 13:18:28;;;;;;;19.42;15.10;;;;;;;;;;5027777;28;20025;-65
2022/07/31 13:20:54;;;;;;;18.58;15.20;;;;;;;;;;5027737;28;20044;-66
2022/07/31 13:23:23;;;;;;;19.70;14.90;;;;;;;;;;5028860;28;20503;-66
2022/07/31 13:25:49;;;;;;;19.13;14.85;;;;;;;;;;5027726;28;20022;-67
2022/07/31 13:28:15;;;;;;;17.95;14.90;;;;;;;;;;5028386;28;20021;-68
2022/07/31 13:30:41;;;;;;;21.10;14.57;;;;;;;;;;5027897;28;20025;-66
2022/07/31 13:33:08;;;;;;;21.45;14.85;;;;;;;;;;5029028;28;20730;-66
2022/07/31 13:35:34;;;;;;;16.70;14.00;;;;;;;;;;5026616;28;20021;-69
2022/07/31 13:38:00;;;;;;;19.63;14.30;;;;;;;;;;5020408;28;20026;-66
2022/07/31 13:43:11;;;;;;;18.67;13.98;;;;;;;;;;5009068;28;20068;-65
2022/07/31 13:45:37;;;;;;;18.27;13.68;;;;;;;;;;5007755;28;20034;-67
2022/07/31 13:48:03;;;;;;;18.00;13.48;;;;;;;;;;5007915;28;20438;-66
2022/07/31 13:50:29;;;;;;;17.08;13.60;;;;;;;;;;5009713;28;20032;-67
2022/07/31 13:52:57;;;;;;;18.52;14.05;;;;;;;;;;5010166;28;20396;-66
2022/07/31 13:55:23;;;;;;;17.90;14.35;;;;;;;;;;5011738;28;20030;-67
2022/07/31 13:57:49;;;;;;;17.05;13.73;;;;;;;;;;5011501;28;20037;-66
2022/07/31 14:00:16;;;;;;;16.50;13.63;;;;;;;;;;5011444;28;20114;-66
2022/07/31 14:02:45;;;;;;;19.10;14.60;;;;;;;;;;5012727;28;20034;-66
2022/07/31 14:05:11;;;;;;;17.95;15.02;;;;;;;;;;5030532;28;20022;-66
2022/07/31 14:07:37;;;;;;;18.35;14.13;;;;;;;;;;5031915;28;20026;-66
2022/07/31 14:10:04;;;;;;;16.75;13.95;;;;;;;;;;5032475;28;20037;-65
2022/07/31 14:12:30;;;;;;;18.55;14.57;;;;;;;;;;5032839;28;20022;-67
2022/07/31 14:14:56;;;;;;;17.50;14.38;;;;;;;;;;5032118;28;20373;-66
2022/07/31 14:17:22;;;;;;;18.98;14.45;;;;;;;;;;5031737;28;20025;-65
2022/07/31 14:19:48;;;;;;;18.43;14.80;;;;;;;;;;4682090;28;9999757;-65
2022/07/31 14:22:14;;;;;;;18.10;14.95;;;;;;;;;;5029035;28;20501;-64